Observation data for Paducah on 04/21/2017      Previous  Date  Next       Current Mesonet Observations  Soil Data  Daily Summary Page  Observations in Plain Language
KPAD 210505Z 03010KT 17/15 A2992 RMK A01 T01680148  RH  090%=      5-min Rain = 0
KPAD 210510Z 02008KT 17/15 A2992 RMK A01 T01680147  RH  090%=      5-min Rain = 0
KPAD 210515Z 02008KT 17/15 A2992 RMK A01 T01670148  RH  090%=      5-min Rain = 0
KPAD 210520Z 03007KT 17/15 A2992 RMK A01 T01670148  RH  091%=      5-min Rain = 0
KPAD 210525Z 03008KT 17/15 A2991 RMK A01 T01670149  RH  091%=      5-min Rain = 0
KPAD 210530Z 02005KT 17/15 A2991 RMK A01 T01670148  RH  090%=      5-min Rain = 0
KPAD 210535Z 01006KT 17/15 A2991 RMK A01 T01650147  RH  091%=      5-min Rain = 0
KPAD 210540Z 03006KT 17/15 A2991 RMK A01 T01650148  RH  091%=      5-min Rain = 0
KPAD 210545Z 04005KT 17/15 A2991 RMK A01 T01650149  RH  092%=      5-min Rain = 0
KPAD 210550Z 06004KT 17/15 A2991 RMK A01 T01650148  RH  092%=      5-min Rain = 0
KPAD 210555Z 06005KT 16/15 A299 RMK A01 T01640148  RH  092%=      5-min Rain = 0
KPAD 210600Z 05005KT 17/15 A299 RMK A01 T01650150  RH  093%=      5-min Rain = 0
KPAD 210605Z 05005KT 17/15 A299 RMK A01 T01660152  RH  093%=      5-min Rain = 0
KPAD 210610Z 05006KT 17/15 A299 RMK A01 T01670153  RH  094%=      5-min Rain = 0
KPAD 210615Z 05006KT 17/15 A2989 RMK A01 T01680154  RH  094%=      5-min Rain = 0
KPAD 210620Z 05006KT 17/15 A2989 RMK A01 T01680154  RH  094%=      5-min Rain = 0
KPAD 210625Z 05005KT 17/15 A2989 RMK A01 T01670154  RH  094%=      5-min Rain = 0
KPAD 210630Z 06006KT 17/15 A2989 RMK A01 T01670154  RH  094%=      5-min Rain = 0
KPAD 210635Z 06005KT 17/16 A2988 RMK A01 T01670155  RH  095%=      5-min Rain = 0
KPAD 210640Z 05005KT 17/16 A2988 RMK A01 T01660155  RH  095%=      5-min Rain = 0
KPAD 210645Z 04005KT 17/16 A2988 RMK A01 T01660155  RH  095%=      5-min Rain = 0
KPAD 210650Z 03004KT 17/16 A2988 RMK A01 T01650155  RH  096%=      5-min Rain = 0
KPAD 210655Z 03003KT 16/15 A2988 RMK A01 T01640154  RH  096%=      5-min Rain = 0
KPAD 210700Z 03003KT 16/15 A2987 RMK A01 T01630153  RH  096%=      5-min Rain = 0
KPAD 210705Z 01004KT 16/15 A2987 RMK A01 T01620152  RH  096%=      5-min Rain = 0
KPAD 210710Z 00004KT 16/15 A2987 RMK A01 T01610152  RH  096%=      5-min Rain = 0
KPAD 210715Z 00004KT 16/15 A2987 RMK A01 T01610152  RH  097%=      5-min Rain = 0
KPAD 210720Z 02004KT 16/15 A2987 RMK A01 T01610152  RH  097%=      5-min Rain = 0
KPAD 210725Z 01005KT 16/15 A2987 RMK A01 T01600151  RH  097%=      5-min Rain = 0
KPAD 210730Z 36006KT 16/15 A2987 RMK A01 T01590150  RH  097%=      5-min Rain = 0
KPAD 210735Z 36005KT 16/15 A2987 RMK A01 T01600152  RH  097%=      5-min Rain = 0
KPAD 210740Z 35004KT 16/15 A2987 RMK A01 T01600153  RH  097%=      5-min Rain = 0
KPAD 210745Z 34005KT 16/15 A2987 RMK A01 T01590151  RH  097%=      5-min Rain = 0
KPAD 210750Z 34006KT 16/15 A2986 RMK A01 T01570149  RH  097%=      5-min Rain = 0
KPAD 210755Z 33005KT 16/15 A2986 RMK A01 T01560148  RH  097%=      5-min Rain = 0
KPAD 210800Z 33005KT 16/15 A2986 RMK A01 T01550147  RH  097%=      5-min Rain = 0
KPAD 210805Z 33005KT 15/15 A2986 RMK A01 T01540147  RH  098%=      5-min Rain = 0
KPAD 210810Z 33006KT 15/15 A2986 RMK A01 T01540147  RH  098%=      5-min Rain = 0
KPAD 210815Z 32006KT 16/15 A2986 RMK A01 T01550148  RH  098%=      5-min Rain = 0
KPAD 210820Z 32006KT 16/15 A2986 RMK A01 T01560149  RH  098%=      5-min Rain = 0
KPAD 210825Z 32005KT 16/15 A2986 RMK A01 T01570150  RH  098%=      5-min Rain = 0
KPAD 210830Z 30004KT 16/15 A2987 RMK A01 T01570150  RH  098%=      5-min Rain = 0
KPAD 210835Z 30006KT 16/15 A2987 RMK A01 T01580151  RH  098%=      5-min Rain = 0
KPAD 210840Z 30006KT 16/15 A2987 RMK A01 T01580151  RH  098%=      5-min Rain = 0
KPAD 210845Z 31006KT 16/15 A2987 RMK A01 T01580152  RH  098%=      5-min Rain = 0
KPAD 210850Z 32004KT 16/15 A2987 RMK A01 T01590153  RH  098%=      5-min Rain = 0
KPAD 210855Z 33005KT 16/15 A2986 RMK A01 T01590153  RH  098%=      5-min Rain = 0
KPAD 210900Z 33005KT 16/15 A2986 RMK A01 T01590153  RH  098%=      5-min Rain = 0
KPAD 210905Z 34005KT 16/15 A2986 RMK A01 T01590153  RH  098%=      5-min Rain = 0
KPAD 210910Z 35004KT 16/15 A2986 RMK A01 T01600154  RH  098%=      5-min Rain = 0
KPAD 210915Z 00004KT 16/16 A2986 RMK A01 T01610155  RH  099%=      5-min Rain = 0
KPAD 210920Z 01003KT 16/16 A2986 RMK A01 T01610156  RH  099%=      5-min Rain = 0
KPAD 210925Z 02004KT 16/16 A2985 RMK A01 T01610156  RH  099%=      5-min Rain = 0
KPAD 210930Z 02004KT 16/16 A2985 RMK A01 T01610155  RH  099%=      5-min Rain = 0
KPAD 210935Z 02004KT 16/16 A2985 RMK A01 T01610155  RH  099%=      5-min Rain = 0
KPAD 210940Z 01004KT 16/16 A2985 RMK A01 T01610155  RH  099%=      5-min Rain = 0
KPAD 210945Z 01003KT 16/15 A2985 RMK A01 T01600154  RH  099%=      5-min Rain = 0
KPAD 210950Z 35004KT 16/15 A2985 RMK A01 T01590154  RH  099%=      5-min Rain = 0
KPAD 210955Z 00004KT 16/15 A2985 RMK A01 T01580153  RH  099%=      5-min Rain = 0
KPAD 211000Z 35004KT 16/15 A2985 RMK A01 T01580153  RH  099%=      5-min Rain = 0
KPAD 211005Z 00004KT 16/15 A2984 RMK A01 T01600154  RH  099%=      5-min Rain = 0
KPAD 211010Z 00004KT 16/16 A2984 RMK A01 T01600155  RH  099%=      5-min Rain = 0
KPAD 211015Z 00003KT 16/16 A2984 RMK A01 T01610156  RH  099%=      5-min Rain = 0
KPAD 211020Z 01003KT 16/16 A2984 RMK A01 T01610156  RH  099%=      5-min Rain = 0
KPAD 211025Z 36003KT 16/16 A2984 RMK A01 T01610155  RH  099%=      5-min Rain = 0
KPAD 211030Z 01002KT 16/16 A2983 RMK A01 T01600155  RH  099%=      5-min Rain = 0
KPAD 211035Z 35002KT 16/16 A2983 RMK A01 T01600155  RH  099%=      5-min Rain = 0
KPAD 211040Z 01001KT 16/16 A2982 RMK A01 T01600155  RH  099%=      5-min Rain = 0
KPAD 211045Z 34002KT 16/16 A2982 RMK A01 T01600155  RH  099%=      5-min Rain = 0
KPAD 211050Z 32000KT 16/16 A2982 RMK A01 T01600155  RH  099%=      5-min Rain = 0
KPAD 211055Z 31000KT 16/16 A2981 RMK A01 T01600155  RH  099%=      5-min Rain = 0
KPAD 211100Z 29001KT 16/16 A2981 RMK A01 T01600155  RH  099%=      5-min Rain = 0
KPAD 211105Z 19001KT 16/16 A2981 RMK A01 T01600155  RH  099%=      5-min Rain = 0
KPAD 211110Z 21002KT 16/16 A2981 RMK A01 T01600155  RH  099%=      5-min Rain = 0
KPAD 211115Z 26003KT 16/16 A2981 RMK A01 T01600155  RH  099%=      5-min Rain = 0
KPAD 211120Z 24003KT 16/16 A2981 RMK A01 T01610156  RH  099%=      5-min Rain = 0
KPAD 211125Z 21003KT 16/16 A298 RMK A01 T01610156  RH  099%=      5-min Rain = 0
KPAD 211130Z 22004KT 16/16 A298 RMK A01 T01610156  RH  099%=      5-min Rain = 0
KPAD 211135Z 23005KT 16/16 A298 RMK A01 T01600156  RH  099%=      5-min Rain = 0
KPAD 211140Z 23004KT 16/16 A2981 RMK A01 T01600155  RH  099%=      5-min Rain = 0
KPAD 211145Z 24004KT 16/16 A2981 RMK A01 T01600155  RH  099%=      5-min Rain = 0
KPAD 211150Z 24004KT 16/16 A2981 RMK A01 T01600155  RH  099%=      5-min Rain = 0
KPAD 211155Z 24004KT 16/16 A2981 RMK A01 T01590155  RH  099%=      5-min Rain = 0
KPAD 211200Z 24003KT 16/15 A2981 RMK A01 T01580154  RH  099%=      5-min Rain = 0
KPAD 211205Z 26003KT 16/15 A2982 RMK A01 T01580154  RH  099%=      5-min Rain = 0
KPAD 211210Z 24002KT 16/15 A2982 RMK A01 T01580153  RH  099%=      5-min Rain = 0
KPAD 211215Z 23002KT 16/15 A2982 RMK A01 T01570153  RH  099%=      5-min Rain = 0
KPAD 211220Z 19002KT 16/15 A2981 RMK A01 T01570152  RH  099%=      5-min Rain = 0
KPAD 211225Z 19001KT 16/15 A2982 RMK A01 T01560152  RH  099%=      5-min Rain = 0
KPAD 211230Z 20001KT 16/15 A2982 RMK A01 T01550151  RH  099%=      5-min Rain = 0
KPAD 211235Z 18000KT 16/15 A2982 RMK A01 T01560151  RH  099%=      5-min Rain = 0
KPAD 211240Z 31002KT 16/15 A2982 RMK A01 T01550151  RH  099%=      5-min Rain = 0
KPAD 211245Z 30001KT 16/15 A2983 RMK A01 T01550151  RH  099%=      5-min Rain = 0
KPAD 211250Z 25001KT 16/15 A2983 RMK A01 T01550151  RH  099%=      5-min Rain = 0
KPAD 211255Z 28001KT 16/15 A2983 RMK A01 T01560152  RH  100%=      5-min Rain = 0
KPAD 211300Z 33004KT 16/15 A2983 RMK A01 T01570153  RH  100%=      5-min Rain = 0
KPAD 211305Z 33004KT 16/15 A2983 RMK A01 T01570153  RH  100%=      5-min Rain = 0
KPAD 211310Z 33005KT 16/16 A2984 RMK A01 T01590155  RH  100%=      5-min Rain = 0
KPAD 211315Z 33004KT 16/16 A2985 RMK A01 T01600156  RH  100%=      5-min Rain = 0
KPAD 211320Z 33003KT 16/16 A2985 RMK A01 T01610157  RH  100%=      5-min Rain = 0
KPAD 211325Z 32005KT 16/16 A2985 RMK A01 T01620158  RH  100%=      5-min Rain = 0
KPAD 211330Z 34002KT 16/16 A2985 RMK A01 T01630159  RH  100%=      5-min Rain = 0
KPAD 211335Z 36002KT 16/16 A2984 RMK A01 T01640160  RH  100%=      5-min Rain = 0
KPAD 211340Z 33001KT 17/16 A2984 RMK A01 T01660162  RH  100%=      5-min Rain = 0
KPAD 211345Z 33002KT 17/16 A2984 RMK A01 T01680164  RH  100%=      5-min Rain = 0
KPAD 211350Z 34000KT 17/17 A2984 RMK A01 T01690165  RH  100%=      5-min Rain = 0
KPAD 211355Z 25000KT 17/17 A2985 RMK A01 T01700166  RH  100%=      5-min Rain = 0
KPAD 211400Z 30002KT 17/17 A2985 RMK A01 T01700166  RH  100%=      5-min Rain = 0
KPAD 211405Z 33002KT 17/17 A2985 RMK A01 T01720167  RH  100%=      5-min Rain = 0
KPAD 211410Z 36002KT 17/17 A2985 RMK A01 T01730168  RH  100%=      5-min Rain = 0
KPAD 211415Z 01002KT 17/17 A2985 RMK A01 T01740170  RH  099%=      5-min Rain = 0
KPAD 211420Z 31002KT 17/17 A2984 RMK A01 T01740169  RH  099%=      5-min Rain = 0
KPAD 211425Z 32001KT 18/17 A2985 RMK A01 T01750170  RH  099%=      5-min Rain = 0
KPAD 211430Z 34001KT 18/17 A2985 RMK A01 T01770172  RH  099%=      5-min Rain = 0
KPAD 211435Z 03001KT 18/17 A2984 RMK A01 T01780172  RH  099%=      5-min Rain = 0
KPAD 211440Z 05001KT 18/17 A2984 RMK A01 T01800174  RH  099%=      5-min Rain = 0
KPAD 211445Z 04002KT 18/18 A2984 RMK A01 T01810175  RH  099%=      5-min Rain = 0
KPAD 211450Z 01003KT 18/18 A2984 RMK A01 T01810175  RH  098%=      5-min Rain = 0
KPAD 211455Z 01003KT 18/18 A2984 RMK A01 T01820175  RH  098%=      5-min Rain = 0
KPAD 211500Z 01003KT 18/18 A2984 RMK A01 T01840176  RH  098%=      5-min Rain = 0
KPAD 211505Z 02004KT 19/18 A2984 RMK A01 T01860177  RH  097%=      5-min Rain = 0
KPAD 211510Z 02004KT 19/18 A2984 RMK A01 T01870177  RH  096%=      5-min Rain = 0
KPAD 211515Z 35004KT 19/18 A2984 RMK A01 T01880175  RH  094%=      5-min Rain = 0
KPAD 211520Z 01003KT 19/17 A2984 RMK A01 T01890174  RH  093%=      5-min Rain = 0
KPAD 211525Z 02003KT 19/17 A2984 RMK A01 T01910173  RH  092%=      5-min Rain = 0
KPAD 211530Z 32002KT 19/17 A2984 RMK A01 T01920172  RH  090%=      5-min Rain = 0
KPAD 211535Z 33002KT 19/17 A2984 RMK A01 T01930171  RH  089%=      5-min Rain = 0
KPAD 211540Z 00004KT 19/17 A2984 RMK A01 T01940171  RH  088%=      5-min Rain = 0
KPAD 211545Z 35005KT 20/17 A2984 RMK A01 T01960169  RH  086%=      5-min Rain = 0
KPAD 211550Z 34003KT 20/17 A2984 RMK A01 T01970168  RH  085%=      5-min Rain = 0
KPAD 211555Z 34005KT 20/17 A2984 RMK A01 T01980167  RH  084%=      5-min Rain = 0
KPAD 211600Z 00007KT 20/17 A2984 RMK A01 T01970167  RH  084%=      5-min Rain = 0
KPAD 211605Z 00008KT 20/17 A2984 RMK A01 T01960167  RH  085%=      5-min Rain = 0
KPAD 211610Z 01008KT 20/17 A2984 RMK A01 T01950167  RH  086%=      5-min Rain = 0
KPAD 211615Z 01007KT 19/17 A2984 RMK A01 T01940167  RH  086%=      5-min Rain = 0
KPAD 211620Z 00007KT 19/17 A2984 RMK A01 T01940168  RH  087%=      5-min Rain = 0
KPAD 211625Z 01007KT 19/17 A2984 RMK A01 T01930167  RH  087%=      5-min Rain = 0
KPAD 211630Z 02011G18KT 19/16 A2984 RMK A01 T01900162  RH  086%=      5-min Rain = 0
KPAD 211635Z 02013KT 17/15 A2985 RMK A01 T01710146  RH  087%=      5-min Rain = 0
KPAD 211640Z 02011KT 17/15 A2985 RMK A01 T01650145  RH  090%=      5-min Rain = 0
KPAD 211645Z 03010KT 16/14 A2985 RMK A01 T01630142  RH  090%=      5-min Rain = 0
KPAD 211650Z 02010KT 16/14 A2985 RMK A01 T01630142  RH  089%=      5-min Rain = 0
KPAD 211655Z 02010KT 16/14 A2985 RMK A01 T01610140  RH  089%=      5-min Rain = 0
KPAD 211700Z 01012KT 16/14 A2985 RMK A01 T01600138  RH  089%=      5-min Rain = 0
KPAD 211705Z 01012KT 16/14 A2985 RMK A01 T01570136  RH  089%=      5-min Rain = 0
KPAD 211710Z 01010G16KT 16/14 A2985 RMK A01 T01560135  RH  089%=      5-min Rain = 0
KPAD 211715Z 02012KT 16/14 A2985 RMK A01 T01570135  RH  088%=      5-min Rain = 0
KPAD 211720Z 02013KT 16/13 A2985 RMK A01 T01560133  RH  088%=      5-min Rain = 0
KPAD 211725Z 03013G18KT 16/13 A2985 RMK A01 T01560133  RH  088%=      5-min Rain = 0
KPAD 211730Z 03011G16KT 16/13 A2985 RMK A01 T01560132  RH  088%=      5-min Rain = 0
KPAD 211735Z 03011KT 16/13 A2985 RMK A01 T01560131  RH  087%=      5-min Rain = 0
KPAD 211740Z 02014KT 15/13 A2985 RMK A01 T01540129  RH  087%=      5-min Rain = 0
KPAD 211745Z 02012KT 15/13 A2985 RMK A01 T01530129  RH  087%=      5-min Rain = 0
KPAD 211750Z 01013KT 15/13 A2985 RMK A01 T01530127  RH  086%=      5-min Rain = 0
KPAD 211755Z 02012KT 15/13 A2985 RMK A01 T01500125  RH  087%=      5-min Rain = 0
KPAD 211800Z 01012KT 15/13 A2985 RMK A01 T01490125  RH  087%=      5-min Rain = 0
KPAD 211805Z 01012KT 15/13 A2985 RMK A01 T01490125  RH  087%=      5-min Rain = 0
KPAD 211810Z 02010KT 15/13 A2985 RMK A01 T01510127  RH  087%=      5-min Rain = 0
KPAD 211815Z 02010KT 15/13 A2985 RMK A01 T01540128  RH  086%=      5-min Rain = 0
KPAD 211820Z 02012KT 15/13 A2985 RMK A01 T01530126  RH  085%=      5-min Rain = 0
KPAD 211825Z 02010KT 15/13 A2984 RMK A01 T01520127  RH  087%=      5-min Rain = 0
KPAD 211830Z 02010KT 16/13 A2984 RMK A01 T01570130  RH  086%=      5-min Rain = 0
KPAD 211835Z 02011KT 16/13 A2984 RMK A01 T01590130  RH  085%=      5-min Rain = 0
KPAD 211840Z 02012KT 16/13 A2984 RMK A01 T01630131  RH  083%=      5-min Rain = 0
KPAD 211845Z 02011KT 17/13 A2984 RMK A01 T01650132  RH  082%=      5-min Rain = 0
KPAD 211850Z 01012KT 17/13 A2984 RMK A01 T01660131  RH  082%=      5-min Rain = 0
KPAD 211855Z 02012KT 17/13 A2984 RMK A01 T01660131  RH  082%=      5-min Rain = 0
KPAD 211900Z 01013KT 17/13 A2984 RMK A01 T01680132  RH  081%=      5-min Rain = 0
KPAD 211905Z 02014KT 17/13 A2984 RMK A01 T01680131  RH  081%=      5-min Rain = 0
KPAD 211910Z 01011KT 17/13 A2983 RMK A01 T01700133  RH  081%=      5-min Rain = 0
KPAD 211915Z 00013KT 17/13 A2983 RMK A01 T01730132  RH  078%=      5-min Rain = 0
KPAD 211920Z 01013KT 17/13 A2984 RMK A01 T01730132  RH  078%=      5-min Rain = 0
KPAD 211925Z 36013G18KT 18/13 A2984 RMK A01 T01750133  RH  078%=      5-min Rain = 0
KPAD 211930Z 00012G17KT 18/13 A2984 RMK A01 T01770132  RH  077%=      5-min Rain = 0
KPAD 211935Z 01012KT 18/13 A2984 RMK A01 T01770132  RH  076%=      5-min Rain = 0
KPAD 211940Z 01012G17KT 18/13 A2983 RMK A01 T01770132  RH  077%=      5-min Rain = 0
KPAD 211945Z 01013KT 18/13 A2983 RMK A01 T01770132  RH  076%=      5-min Rain = 0
KPAD 211950Z 02011G16KT 18/13 A2983 RMK A01 T01780133  RH  077%=      5-min Rain = 0
KPAD 211955Z 01012G18KT 18/14 A2983 RMK A01 T01830135  RH  075%=      5-min Rain = 0
KPAD 212000Z 02012KT 18/14 A2982 RMK A01 T01840136  RH  075%=      5-min Rain = 0
KPAD 212005Z 01012KT 19/14 A2982 RMK A01 T01870137  RH  074%=      5-min Rain = 0
KPAD 212010Z 02012KT 19/14 A2982 RMK A01 T01900136  RH  073%=      5-min Rain = 0
KPAD 212015Z 01012KT 19/14 A2982 RMK A01 T01930140  RH  073%=      5-min Rain = 0
KPAD 212020Z 01013KT 20/14 A2981 RMK A01 T01960140  RH  071%=      5-min Rain = 0
KPAD 212025Z 02012KT 20/14 A2981 RMK A01 T01980141  RH  071%=      5-min Rain = 0
KPAD 212030Z 01012KT 20/14 A2981 RMK A01 T01980141  RH  071%=      5-min Rain = 0
KPAD 212035Z 02011KT 20/14 A298 RMK A01 T02040144  RH  070%=      5-min Rain = 0
KPAD 212040Z 01013KT 21/14 A298 RMK A01 T02060143  RH  069%=      5-min Rain = 0
KPAD 212045Z 00013G19KT 21/14 A298 RMK A01 T02070144  RH  069%=      5-min Rain = 0
KPAD 212050Z 01013G18KT 21/14 A298 RMK A01 T02060143  RH  069%=      5-min Rain = 0
KPAD 212055Z 01012G17KT 21/14 A298 RMK A01 T02070143  RH  068%=      5-min Rain = 0
KPAD 212100Z 02013G19KT 21/14 A298 RMK A01 T02080143  RH  068%=      5-min Rain = 0
KPAD 212105Z 02013G19KT 21/14 A298 RMK A01 T02060143  RH  068%=      5-min Rain = 0
KPAD 212110Z 02013KT 21/14 A2979 RMK A01 T02070142  RH  068%=      5-min Rain = 0
KPAD 212115Z 02013G18KT 21/14 A2979 RMK A01 T02070142  RH  068%=      5-min Rain = 0
KPAD 212120Z 01015KT 21/14 A2979 RMK A01 T02080141  RH  067%=      5-min Rain = 0
KPAD 212125Z 01014KT 21/14 A2979 RMK A01 T02060141  RH  068%=      5-min Rain = 0
KPAD 212130Z 01012KT 21/14 A2979 RMK A01 T02090143  RH  067%=      5-min Rain = 0
KPAD 212135Z 03012G17KT 21/14 A2979 RMK A01 T02110143  RH  066%=      5-min Rain = 0
KPAD 212140Z 00014KT 21/14 A2979 RMK A01 T02120144  RH  067%=      5-min Rain = 0
KPAD 212145Z 02014G22KT 21/15 A2978 RMK A01 T02140145  RH  066%=      5-min Rain = 0
KPAD 212150Z 01014KT 21/14 A2978 RMK A01 T02140144  RH  066%=      5-min Rain = 0
KPAD 212155Z 01014G19KT 21/15 A2978 RMK A01 T02140145  RH  066%=      5-min Rain = 0
KPAD 212200Z 02013G18KT 22/15 A2978 RMK A01 T02160146  RH  066%=      5-min Rain = 0
KPAD 212205Z 02013G18KT 22/15 A2978 RMK A01 T02170146  RH  066%=      5-min Rain = 0
KPAD 212210Z 01013G18KT 22/15 A2978 RMK A01 T02190147  RH  065%=      5-min Rain = 0
KPAD 212215Z 00014G19KT 22/15 A2978 RMK A01 T02210148  RH  064%=      5-min Rain = 0
KPAD 212220Z 01015G20KT 22/15 A2979 RMK A01 T02240147  RH  063%=      5-min Rain = 0
KPAD 212225Z 01016KT 22/15 A2979 RMK A01 T02230146  RH  063%=      5-min Rain = 0
KPAD 212230Z 36020KT 22/15 A2979 RMK A01 T02200145  RH  064%=      5-min Rain = 0
KPAD 212235Z 36020G28KT 22/15 A2979 RMK A01 T02180145  RH  064%=      5-min Rain = 0
KPAD 212240Z 00021G27KT 22/14 A2979 RMK A01 T02160142  RH  064%=      5-min Rain = 0
KPAD 212245Z 00019G24KT 21/14 A298 RMK A01 T02140144  RH  065%=      5-min Rain = 0
KPAD 212250Z 01019KT 21/14 A298 RMK A01 T02080141  RH  067%=      5-min Rain = 0
KPAD 212255Z 01018G25KT 21/14 A298 RMK A01 T02070141  RH  067%=      5-min Rain = 0
KPAD 212300Z 01018G23KT 21/14 A298 RMK A01 T02050139  RH  067%=      5-min Rain = 0
KPAD 212305Z 01017G25KT 21/14 A298 RMK A01 T02070139  RH  066%=      5-min Rain = 0
KPAD 212310Z 01019G25KT 21/14 A298 RMK A01 T02080138  RH  065%=      5-min Rain = 0
KPAD 212315Z 02018G24KT 21/14 A2981 RMK A01 T02070136  RH  065%=      5-min Rain = 0
KPAD 212320Z 02017G22KT 20/13 A2981 RMK A01 T02030133  RH  066%=      5-min Rain = 0
KPAD 212325Z 02017G24KT 20/13 A2981 RMK A01 T02020131  RH  065%=      5-min Rain = 0
KPAD 212330Z 01018G23KT 20/13 A2981 RMK A01 T02000128  RH  064%=      5-min Rain = 0
KPAD 212335Z 03015G20KT 20/13 A2982 RMK A01 T02000127  RH  064%=      5-min Rain = 0
KPAD 212340Z 03018G23KT 20/13 A2982 RMK A01 T01980126  RH  064%=      5-min Rain = 0
KPAD 212345Z 03017G23KT 20/13 A2982 RMK A01 T01950125  RH  065%=      5-min Rain = 0
KPAD 212350Z 03016G21KT 20/13 A2982 RMK A01 T01950125  RH  065%=      5-min Rain = 0
KPAD 212355Z 03018G24KT 19/12 A2983 RMK A01 T01940123  RH  065%=      5-min Rain = 0
KPAD 220000Z 03016KT 19/12 A2983 RMK A01 T01920122  RH  065%=      5-min Rain = 0
KPAD 220005Z 03016G21KT 19/12 A2983 RMK A01 T01900121  RH  065%=      5-min Rain = 0
KPAD 220010Z 03018G24KT 19/12 A2983 RMK A01 T01880120  RH  066%=      5-min Rain = 0
KPAD 220015Z 03017KT 19/12 A2983 RMK A01 T01860119  RH  066%=      5-min Rain = 0
KPAD 220020Z 03017KT 19/12 A2984 RMK A01 T01850119  RH  067%=      5-min Rain = 0
KPAD 220025Z 03015KT 18/12 A2984 RMK A01 T01840120  RH  067%=      5-min Rain = 0
KPAD 220030Z 03015G21KT 18/12 A2984 RMK A01 T01820120  RH  068%=      5-min Rain = 0
KPAD 220035Z 03017G23KT 18/12 A2984 RMK A01 T01800119  RH  069%=      5-min Rain = 0
KPAD 220040Z 03016G22KT 18/12 A2985 RMK A01 T01780119  RH  070%=      5-min Rain = 0
KPAD 220045Z 03016G21KT 18/12 A2985 RMK A01 T01770120  RH  071%=      5-min Rain = 0
KPAD 220050Z 03015KT 17/12 A2985 RMK A01 T01740119  RH  071%=      5-min Rain = 0
KPAD 220055Z 03016G23KT 17/12 A2986 RMK A01 T01720118  RH  072%=      5-min Rain = 0
KPAD 220100Z 03017G22KT 17/12 A2986 RMK A01 T01710118  RH  072%=      5-min Rain = 0
KPAD 220105Z 03018G23KT 17/12 A2986 RMK A01 T01710117  RH  072%=      5-min Rain = 0
KPAD 220110Z 03017G23KT 17/12 A2987 RMK A01 T01710116  RH  072%=      5-min Rain = 0
KPAD 220115Z 03016G22KT 17/12 A2987 RMK A01 T01700116  RH  072%=      5-min Rain = 0
KPAD 220120Z 03016G21KT 17/12 A2987 RMK A01 T01680116  RH  073%=      5-min Rain = 0
KPAD 220125Z 02018G23KT 17/11 A2987 RMK A01 T01660114  RH  073%=      5-min Rain = 0
KPAD 220130Z 03018G23KT 16/11 A2988 RMK A01 T01640113  RH  073%=      5-min Rain = 0
KPAD 220135Z 03015G25KT 16/11 A2988 RMK A01 T01610112  RH  074%=      5-min Rain = 0
KPAD 220140Z 03018G23KT 16/11 A2988 RMK A01 T01570109  RH  074%=      5-min Rain = 0
KPAD 220145Z 03018G26KT 15/11 A2989 RMK A01 T01540108  RH  075%=      5-min Rain = 0
KPAD 220150Z 03019G25KT 15/11 A299 RMK A01 T01500105  RH  076%=      5-min Rain = 0
KPAD 220155Z 02019G25KT 15/10 A299 RMK A01 T01460102  RH  076%=      5-min Rain = 0
KPAD 220200Z 03020G27KT 14/10 A2991 RMK A01 T01440101  RH  077%=      5-min Rain = 0
KPAD 220205Z 02021G26KT 14/10 A2991 RMK A01 T01400100  RH  078%=      5-min Rain = 0
KPAD 220210Z 03019KT 14/10 A2991 RMK A01 T01370099  RH  079%=      5-min Rain = 0
KPAD 220215Z 02015G22KT 13/10 A2992 RMK A01 T01340098  RH  080%=      5-min Rain = 0
KPAD 220220Z 01018G23KT 13/10 A2992 RMK A01 T01320097  RH  081%=      5-min Rain = 0
KPAD 220225Z 01017G24KT 13/10 A2993 RMK A01 T01310096  RH  081%=      5-min Rain = 0
KPAD 220230Z 01017KT 13/10 A2993 RMK A01 T01310096  RH  081%=      5-min Rain = 0
KPAD 220235Z 01016G21KT 13/10 A2994 RMK A01 T01320095  RH  080%=      5-min Rain = 0
KPAD 220240Z 01018G25KT 13/09 A2994 RMK A01 T01330094  RH  079%=      5-min Rain = 0
KPAD 220245Z 01021G27KT 13/09 A2994 RMK A01 T01330093  RH  078%=      5-min Rain = 0
KPAD 220250Z 01020G26KT 13/09 A2995 RMK A01 T01330092  RH  078%=      5-min Rain = 0
KPAD 220255Z 01019G24KT 13/09 A2995 RMK A01 T01330092  RH  078%=      5-min Rain = 0
KPAD 220300Z 01017G26KT 13/09 A2995 RMK A01 T01310091  RH  078%=      5-min Rain = 0
KPAD 220305Z 01016G21KT 13/09 A2996 RMK A01 T01310091  RH  078%=      5-min Rain = 0
KPAD 220310Z 02018G26KT 13/09 A2996 RMK A01 T01290089  RH  078%=      5-min Rain = 0
KPAD 220315Z 02021KT 13/09 A2996 RMK A01 T01270087  RH  078%=      5-min Rain = 0
KPAD 220320Z 02018G25KT 13/09 A2997 RMK A01 T01260087  RH  078%=      5-min Rain = 0
KPAD 220325Z 02020G27KT 13/09 A2997 RMK A01 T01250086  RH  078%=      5-min Rain = 0
KPAD 220330Z 02019G26KT 13/09 A2998 RMK A01 T01250085  RH  078%=      5-min Rain = 0
KPAD 220335Z 01020G28KT 12/08 A2998 RMK A01 T01240083  RH  077%=      5-min Rain = 0
KPAD 220340Z 01019G27KT 12/08 A2999 RMK A01 T01240081  RH  076%=      5-min Rain = 0
KPAD 220345Z 01020G25KT 12/08 A2999 RMK A01 T01240081  RH  076%=      5-min Rain = 0
KPAD 220350Z 02020G26KT 12/08 A2999 RMK A01 T01240082  RH  077%=      5-min Rain = 0
KPAD 220355Z 02019G24KT 12/08 A30 RMK A01 T01240082  RH  077%=      5-min Rain = 0
KPAD 220400Z 02017G24KT 12/08 A30 RMK A01 T01230083  RH  078%=      5-min Rain = 0
KPAD 220405Z 02018G24KT 12/08 A30 RMK A01 T01220082  RH  078%=      5-min Rain = 0
KPAD 220410Z 03019G24KT 12/08 A3001 RMK A01 T01210081  RH  078%=      5-min Rain = 0
KPAD 220415Z 02016G22KT 12/08 A3001 RMK A01 T01200082  RH  078%=      5-min Rain = 0
KPAD 220420Z 02017G22KT 12/08 A3001 RMK A01 T01200082  RH  079%=      5-min Rain = 0
KPAD 220425Z 02015KT 12/08 A3001 RMK A01 T01200082  RH  079%=      5-min Rain = 0
KPAD 220430Z 01016G23KT 12/08 A3002 RMK A01 T01200081  RH  078%=      5-min Rain = 0
KPAD 220435Z 01017G23KT 12/08 A3002 RMK A01 T01190079  RH  078%=      5-min Rain = 0
KPAD 220440Z 00015G21KT 12/08 A3003 RMK A01 T01190079  RH  078%=      5-min Rain = 0
KPAD 220445Z 01016G23KT 12/08 A3003 RMK A01 T01180079  RH  078%=      5-min Rain = 0
KPAD 220450Z 02018G26KT 12/08 A3003 RMK A01 T01170076  RH  077%=      5-min Rain = 0
KPAD 220455Z 02017G22KT 12/07 A3004 RMK A01 T01160074  RH  076%=      5-min Rain = 0
KPAD 220500Z 02015G21KT 12/07 A3004 RMK A01 T01160074  RH  077%=      5-min Rain = 0

Page generated in 0.4472 seconds.